sensor_id;sensor_type;location;lat;lon;timestamp;temperature;humidity
48666;DHT22;34452;50.796;4.994;2023-08-07T00:00:46;12.50;99.90
48666;DHT22;34452;50.796;4.994;2023-08-07T00:03:12;12.60;99.90
48666;DHT22;34452;50.796;4.994;2023-08-07T00:05:45;12.60;99.90
48666;DHT22;34452;50.796;4.994;2023-08-07T00:08:11;12.50;99.90
48666;DHT22;34452;50.796;4.994;2023-08-07T00:10:37;12.60;99.90
48666;DHT22;34452;50.796;4.994;2023-08-07T00:13:03;12.50;99.90
48666;DHT22;34452;50.796;4.994;2023-08-07T00:15:29;12.50;99.90
48666;DHT22;34452;50.796;4.994;2023-08-07T00:17:55;12.50;99.90
48666;DHT22;34452;50.796;4.994;2023-08-07T00:20:21;12.50;99.90
48666;DHT22;34452;50.796;4.994;2023-08-07T00:22:46;12.40;99.90
48666;DHT22;34452;50.796;4.994;2023-08-07T00:25:12;12.50;99.90
48666;DHT22;34452;50.796;4.994;2023-08-07T00:27:38;12.50;99.90
48666;DHT22;34452;50.796;4.994;2023-08-07T00:30:04;12.50;99.90
48666;DHT22;34452;50.796;4.994;2023-08-07T00:32:30;12.50;99.90
48666;DHT22;34452;50.796;4.994;2023-08-07T00:34:55;12.50;99.90
48666;DHT22;34452;50.796;4.994;2023-08-07T00:37:21;12.50;99.90
48666;DHT22;34452;50.796;4.994;2023-08-07T00:39:47;12.50;99.90
48666;DHT22;34452;50.796;4.994;2023-08-07T00:42:12;12.50;99.90
48666;DHT22;34452;50.796;4.994;2023-08-07T00:44:38;12.50;99.90
48666;DHT22;34452;50.796;4.994;2023-08-07T00:47:04;12.50;99.90
48666;DHT22;34452;50.796;4.994;2023-08-07T00:49:30;12.40;99.90
48666;DHT22;34452;50.796;4.994;2023-08-07T00:51:56;12.40;99.90
48666;DHT22;34452;50.796;4.994;2023-08-07T00:54:22;12.40;99.90
48666;DHT22;34452;50.796;4.994;2023-08-07T00:56:48;12.40;99.90
48666;DHT22;34452;50.796;4.994;2023-08-07T00:59:15;12.40;99.90
48666;DHT22;34452;50.796;4.994;2023-08-07T01:01:41;12.40;99.90
48666;DHT22;34452;50.796;4.994;2023-08-07T01:04:07;12.40;99.90
48666;DHT22;34452;50.796;4.994;2023-08-07T01:06:33;12.30;99.90
48666;DHT22;34452;50.796;4.994;2023-08-07T01:08:58;12.40;99.90
48666;DHT22;34452;50.796;4.994;2023-08-07T01:11:47;12.30;99.90
48666;DHT22;34452;50.796;4.994;2023-08-07T01:14:23;12.30;99.90
48666;DHT22;34452;50.796;4.994;2023-08-07T01:19:40;12.30;99.90
48666;DHT22;34452;50.796;4.994;2023-08-07T01:22:25;12.20;99.90
48666;DHT22;34452;50.796;4.994;2023-08-07T01:24:51;12.30;99.90
48666;DHT22;34452;50.796;4.994;2023-08-07T01:32:51;12.30;99.90
48666;DHT22;34452;50.796;4.994;2023-08-07T01:35:23;12.20;99.90
48666;DHT22;34452;50.796;4.994;2023-08-07T01:37:53;12.30;99.90
48666;DHT22;34452;50.796;4.994;2023-08-07T01:40:21;12.30;99.90
48666;DHT22;34452;50.796;4.994;2023-08-07T01:42:47;12.30;99.90
48666;DHT22;34452;50.796;4.994;2023-08-07T01:45:14;12.40;99.90
48666;DHT22;34452;50.796;4.994;2023-08-07T01:47:39;12.40;99.90
48666;DHT22;34452;50.796;4.994;2023-08-07T01:50:06;12.40;99.90
48666;DHT22;34452;50.796;4.994;2023-08-07T01:52:32;12.40;99.90
48666;DHT22;34452;50.796;4.994;2023-08-07T01:54:58;12.30;99.90
48666;DHT22;34452;50.796;4.994;2023-08-07T01:57:24;12.30;99.90
48666;DHT22;34452;50.796;4.994;2023-08-07T01:59:51;12.30;99.90
48666;DHT22;34452;50.796;4.994;2023-08-07T02:02:17;12.30;99.90
48666;DHT22;34452;50.796;4.994;2023-08-07T02:04:43;12.20;99.90
48666;DHT22;34452;50.796;4.994;2023-08-07T02:07:08;12.20;99.90
48666;DHT22;34452;50.796;4.994;2023-08-07T02:09:34;12.20;99.90
48666;DHT22;34452;50.796;4.994;2023-08-07T02:12:00;12.20;99.90
48666;DHT22;34452;50.796;4.994;2023-08-07T02:14:27;12.20;99.90
48666;DHT22;34452;50.796;4.994;2023-08-07T02:16:52;12.10;99.90
48666;DHT22;34452;50.796;4.994;2023-08-07T02:19:18;12.10;99.90
48666;DHT22;34452;50.796;4.994;2023-08-07T02:21:44;12.10;99.90
48666;DHT22;34452;50.796;4.994;2023-08-07T02:24:09;12.10;99.90
48666;DHT22;34452;50.796;4.994;2023-08-07T02:26:35;12.10;99.90
48666;DHT22;34452;50.796;4.994;2023-08-07T02:29:01;12.10;99.90
48666;DHT22;34452;50.796;4.994;2023-08-07T02:31:28;12.10;99.90
48666;DHT22;34452;50.796;4.994;2023-08-07T02:33:54;12.10;99.90
48666;DHT22;34452;50.796;4.994;2023-08-07T02:36:19;12.00;99.90
48666;DHT22;34452;50.796;4.994;2023-08-07T02:38:45;12.00;99.90
48666;DHT22;34452;50.796;4.994;2023-08-07T02:41:11;12.00;99.90
48666;DHT22;34452;50.796;4.994;2023-08-07T02:43:36;11.90;99.90
48666;DHT22;34452;50.796;4.994;2023-08-07T02:46:02;11.90;99.90
48666;DHT22;34452;50.796;4.994;2023-08-07T02:48:28;11.90;99.90
48666;DHT22;34452;50.796;4.994;2023-08-07T02:50:53;11.90;99.90
48666;DHT22;34452;50.796;4.994;2023-08-07T02:53:19;11.90;99.90
48666;DHT22;34452;50.796;4.994;2023-08-07T02:55:45;11.90;99.90
48666;DHT22;34452;50.796;4.994;2023-08-07T02:58:11;11.90;99.90
48666;DHT22;34452;50.796;4.994;2023-08-07T03:00:36;11.90;99.90
48666;DHT22;34452;50.796;4.994;2023-08-07T03:03:02;11.90;99.90
48666;DHT22;34452;50.796;4.994;2023-08-07T03:05:28;11.90;99.90
48666;DHT22;34452;50.796;4.994;2023-08-07T03:07:54;11.90;99.90
48666;DHT22;34452;50.796;4.994;2023-08-07T03:10:20;11.90;99.90
48666;DHT22;34452;50.796;4.994;2023-08-07T03:12:46;11.90;99.90
48666;DHT22;34452;50.796;4.994;2023-08-07T03:15:12;11.80;99.90
48666;DHT22;34452;50.796;4.994;2023-08-07T03:17:38;11.80;99.90
48666;DHT22;34452;50.796;4.994;2023-08-07T03:20:04;11.80;99.90
48666;DHT22;34452;50.796;4.994;2023-08-07T03:22:30;11.80;99.90
48666;DHT22;34452;50.796;4.994;2023-08-07T03:24:55;11.80;99.90
48666;DHT22;34452;50.796;4.994;2023-08-07T03:27:21;11.80;99.90
48666;DHT22;34452;50.796;4.994;2023-08-07T03:29:47;11.80;99.90
48666;DHT22;34452;50.796;4.994;2023-08-07T03:32:13;11.70;99.90
48666;DHT22;34452;50.796;4.994;2023-08-07T03:34:38;11.70;99.90
48666;DHT22;34452;50.796;4.994;2023-08-07T03:37:04;11.70;99.90
48666;DHT22;34452;50.796;4.994;2023-08-07T03:39:30;11.70;99.90
48666;DHT22;34452;50.796;4.994;2023-08-07T03:41:56;11.70;99.90
48666;DHT22;34452;50.796;4.994;2023-08-07T03:44:21;11.70;99.90
48666;DHT22;34452;50.796;4.994;2023-08-07T03:46:47;11.70;99.90
48666;DHT22;34452;50.796;4.994;2023-08-07T03:49:13;11.70;99.90
48666;DHT22;34452;50.796;4.994;2023-08-07T03:51:39;11.70;99.90
48666;DHT22;34452;50.796;4.994;2023-08-07T03:54:05;11.70;99.90
48666;DHT22;34452;50.796;4.994;2023-08-07T03:56:31;11.70;99.90
48666;DHT22;34452;50.796;4.994;2023-08-07T03:59:02;11.70;99.90
48666;DHT22;34452;50.796;4.994;2023-08-07T04:01:27;11.70;99.90
48666;DHT22;34452;50.796;4.994;2023-08-07T04:03:53;11.70;99.90
48666;DHT22;34452;50.796;4.994;2023-08-07T04:06:19;11.70;99.90
48666;DHT22;34452;50.796;4.994;2023-08-07T04:08:46;11.70;99.90
48666;DHT22;34452;50.796;4.994;2023-08-07T04:11:12;11.80;99.90
48666;DHT22;34452;50.796;4.994;2023-08-07T04:13:38;11.80;99.90
48666;DHT22;34452;50.796;4.994;2023-08-07T04:16:05;11.90;99.90
48666;DHT22;34452;50.796;4.994;2023-08-07T04:18:31;11.90;99.90
48666;DHT22;34452;50.796;4.994;2023-08-07T04:20:57;12.00;99.90
48666;DHT22;34452;50.796;4.994;2023-08-07T04:23:23;12.00;99.90
48666;DHT22;34452;50.796;4.994;2023-08-07T04:25:50;12.10;99.90
48666;DHT22;34452;50.796;4.994;2023-08-07T04:28:16;12.10;99.90
48666;DHT22;34452;50.796;4.994;2023-08-07T04:30:43;12.10;99.90
48666;DHT22;34452;50.796;4.994;2023-08-07T04:33:09;12.10;99.90
48666;DHT22;34452;50.796;4.994;2023-08-07T04:35:35;12.20;99.90
48666;DHT22;34452;50.796;4.994;2023-08-07T04:38:02;12.20;99.90
48666;DHT22;34452;50.796;4.994;2023-08-07T04:40:28;12.20;99.90
48666;DHT22;34452;50.796;4.994;2023-08-07T04:42:54;12.20;99.90
48666;DHT22;34452;50.796;4.994;2023-08-07T04:45:20;12.20;99.90
48666;DHT22;34452;50.796;4.994;2023-08-07T04:47:45;12.20;99.90
48666;DHT22;34452;50.796;4.994;2023-08-07T04:50:11;12.20;99.90
48666;DHT22;34452;50.796;4.994;2023-08-07T04:52:37;12.20;99.90
48666;DHT22;34452;50.796;4.994;2023-08-07T04:55:03;12.20;99.90
48666;DHT22;34452;50.796;4.994;2023-08-07T04:57:29;12.20;99.90
48666;DHT22;34452;50.796;4.994;2023-08-07T04:59:55;12.20;99.90
48666;DHT22;34452;50.796;4.994;2023-08-07T05:02:21;12.30;99.90
48666;DHT22;34452;50.796;4.994;2023-08-07T05:04:47;12.30;99.90
48666;DHT22;34452;50.796;4.994;2023-08-07T05:07:13;12.30;99.90
48666;DHT22;34452;50.796;4.994;2023-08-07T05:09:38;12.30;99.90
48666;DHT22;34452;50.796;4.994;2023-08-07T05:12:05;12.40;99.90
48666;DHT22;34452;50.796;4.994;2023-08-07T05:14:32;12.40;99.90
48666;DHT22;34452;50.796;4.994;2023-08-07T05:16:58;12.40;99.90
48666;DHT22;34452;50.796;4.994;2023-08-07T05:19:25;12.50;99.90
48666;DHT22;34452;50.796;4.994;2023-08-07T05:21:51;12.50;99.90
48666;DHT22;34452;50.796;4.994;2023-08-07T05:24:17;12.50;99.90
48666;DHT22;34452;50.796;4.994;2023-08-07T05:26:43;12.60;99.90
48666;DHT22;34452;50.796;4.994;2023-08-07T05:29:09;12.60;99.90
48666;DHT22;34452;50.796;4.994;2023-08-07T05:31:35;12.60;99.90
48666;DHT22;34452;50.796;4.994;2023-08-07T05:34:01;12.60;99.90
48666;DHT22;34452;50.796;4.994;2023-08-07T05:36:27;12.70;99.90
48666;DHT22;34452;50.796;4.994;2023-08-07T05:38:55;12.70;99.90
48666;DHT22;34452;50.796;4.994;2023-08-07T05:41:21;12.70;99.90
48666;DHT22;34452;50.796;4.994;2023-08-07T05:43:46;12.80;99.90
48666;DHT22;34452;50.796;4.994;2023-08-07T05:46:12;12.80;99.90
48666;DHT22;34452;50.796;4.994;2023-08-07T05:48:38;12.80;99.90
48666;DHT22;34452;50.796;4.994;2023-08-07T05:51:04;12.80;99.90
48666;DHT22;34452;50.796;4.994;2023-08-07T05:53:29;12.80;99.90
48666;DHT22;34452;50.796;4.994;2023-08-07T05:55:55;12.80;99.90
48666;DHT22;34452;50.796;4.994;2023-08-07T05:58:21;12.80;99.90
48666;DHT22;34452;50.796;4.994;2023-08-07T06:00:47;12.70;99.90
48666;DHT22;34452;50.796;4.994;2023-08-07T06:03:13;12.70;99.90
48666;DHT22;34452;50.796;4.994;2023-08-07T06:05:39;12.70;99.90
48666;DHT22;34452;50.796;4.994;2023-08-07T06:08:05;12.70;99.90
48666;DHT22;34452;50.796;4.994;2023-08-07T06:10:30;12.70;99.90
48666;DHT22;34452;50.796;4.994;2023-08-07T06:12:56;12.70;99.90
48666;DHT22;34452;50.796;4.994;2023-08-07T06:15:22;12.80;99.90
48666;DHT22;34452;50.796;4.994;2023-08-07T06:17:47;12.80;99.90
48666;DHT22;34452;50.796;4.994;2023-08-07T06:20:13;12.90;99.90
48666;DHT22;34452;50.796;4.994;2023-08-07T06:22:41;12.90;99.90
48666;DHT22;34452;50.796;4.994;2023-08-07T06:25:07;13.00;99.90
48666;DHT22;34452;50.796;4.994;2023-08-07T06:27:34;13.10;99.90
48666;DHT22;34452;50.796;4.994;2023-08-07T06:29:59;13.20;99.90
48666;DHT22;34452;50.796;4.994;2023-08-07T06:32:26;13.30;99.90
48666;DHT22;34452;50.796;4.994;2023-08-07T06:34:52;13.40;99.90
48666;DHT22;34452;50.796;4.994;2023-08-07T06:37:19;13.50;99.90
48666;DHT22;34452;50.796;4.994;2023-08-07T06:39:44;13.60;99.90
48666;DHT22;34452;50.796;4.994;2023-08-07T06:42:12;13.70;99.90
48666;DHT22;34452;50.796;4.994;2023-08-07T06:44:37;13.70;99.90
48666;DHT22;34452;50.796;4.994;2023-08-07T06:47:03;13.90;99.90
48666;DHT22;34452;50.796;4.994;2023-08-07T06:49:29;13.90;99.90
48666;DHT22;34452;50.796;4.994;2023-08-07T06:51:57;14.00;99.90
48666;DHT22;34452;50.796;4.994;2023-08-07T06:54:23;14.10;99.90
48666;DHT22;34452;50.796;4.994;2023-08-07T06:56:49;14.20;99.90
48666;DHT22;34452;50.796;4.994;2023-08-07T06:59:15;14.30;99.90
48666;DHT22;34452;50.796;4.994;2023-08-07T07:02:15;14.30;99.90
48666;DHT22;34452;50.796;4.994;2023-08-07T07:04:41;14.40;99.90
48666;DHT22;34452;50.796;4.994;2023-08-07T07:07:07;14.50;99.90
48666;DHT22;34452;50.796;4.994;2023-08-07T07:09:32;14.60;99.90
48666;DHT22;34452;50.796;4.994;2023-08-07T07:11:58;14.70;99.90
48666;DHT22;34452;50.796;4.994;2023-08-07T07:14:24;14.70;99.90
48666;DHT22;34452;50.796;4.994;2023-08-07T07:16:49;14.80;99.90
48666;DHT22;34452;50.796;4.994;2023-08-07T07:19:15;14.80;99.90
48666;DHT22;34452;50.796;4.994;2023-08-07T07:21:42;14.90;99.90
48666;DHT22;34452;50.796;4.994;2023-08-07T07:24:08;14.90;99.90
48666;DHT22;34452;50.796;4.994;2023-08-07T07:26:33;15.00;99.90
48666;DHT22;34452;50.796;4.994;2023-08-07T07:28:59;15.00;99.90
48666;DHT22;34452;50.796;4.994;2023-08-07T07:31:25;15.10;99.90
48666;DHT22;34452;50.796;4.994;2023-08-07T07:33:50;15.20;99.90
48666;DHT22;34452;50.796;4.994;2023-08-07T07:36:17;15.20;99.90
48666;DHT22;34452;50.796;4.994;2023-08-07T07:38:45;15.30;99.90
48666;DHT22;34452;50.796;4.994;2023-08-07T07:41:10;15.30;99.90
48666;DHT22;34452;50.796;4.994;2023-08-07T07:43:37;15.30;99.90
48666;DHT22;34452;50.796;4.994;2023-08-07T07:46:03;15.40;99.90
48666;DHT22;34452;50.796;4.994;2023-08-07T07:48:29;15.40;99.90
48666;DHT22;34452;50.796;4.994;2023-08-07T07:51:13;15.60;99.90
48666;DHT22;34452;50.796;4.994;2023-08-07T07:53:39;15.60;99.90
48666;DHT22;34452;50.796;4.994;2023-08-07T07:56:05;15.60;99.90
48666;DHT22;34452;50.796;4.994;2023-08-07T07:58:31;15.60;99.90
48666;DHT22;34452;50.796;4.994;2023-08-07T08:00:56;15.60;99.90
48666;DHT22;34452;50.796;4.994;2023-08-07T08:03:22;15.60;99.90
48666;DHT22;34452;50.796;4.994;2023-08-07T08:06:04;15.70;99.90
48666;DHT22;34452;50.796;4.994;2023-08-07T08:08:29;15.80;99.90
48666;DHT22;34452;50.796;4.994;2023-08-07T08:10:55;15.90;99.90
48666;DHT22;34452;50.796;4.994;2023-08-07T08:13:21;16.00;99.90
48666;DHT22;34452;50.796;4.994;2023-08-07T08:15:48;16.00;99.90
48666;DHT22;34452;50.796;4.994;2023-08-07T08:18:13;16.20;99.90
48666;DHT22;34452;50.796;4.994;2023-08-07T08:20:39;16.20;99.90
48666;DHT22;34452;50.796;4.994;2023-08-07T08:23:05;16.20;99.90
48666;DHT22;34452;50.796;4.994;2023-08-07T08:25:31;16.20;99.90
48666;DHT22;34452;50.796;4.994;2023-08-07T08:27:58;16.20;99.90
48666;DHT22;34452;50.796;4.994;2023-08-07T08:30:25;16.20;99.90
48666;DHT22;34452;50.796;4.994;2023-08-07T08:32:51;16.20;99.90
48666;DHT22;34452;50.796;4.994;2023-08-07T08:35:17;16.20;99.90
48666;DHT22;34452;50.796;4.994;2023-08-07T08:37:42;16.40;99.90
48666;DHT22;34452;50.796;4.994;2023-08-07T08:40:09;16.50;99.90
48666;DHT22;34452;50.796;4.994;2023-08-07T08:42:39;16.50;99.90
48666;DHT22;34452;50.796;4.994;2023-08-07T08:45:08;16.50;99.90
48666;DHT22;34452;50.796;4.994;2023-08-07T08:47:36;16.60;99.90
48666;DHT22;34452;50.796;4.994;2023-08-07T08:50:08;16.60;99.90
48666;DHT22;34452;50.796;4.994;2023-08-07T08:52:36;16.60;99.90
48666;DHT22;34452;50.796;4.994;2023-08-07T08:55:03;16.50;99.90
48666;DHT22;34452;50.796;4.994;2023-08-07T08:57:29;16.50;99.90
48666;DHT22;34452;50.796;4.994;2023-08-07T08:59:56;16.50;99.90
48666;DHT22;34452;50.796;4.994;2023-08-07T09:02:23;16.50;99.90
48666;DHT22;34452;50.796;4.994;2023-08-07T09:04:48;16.70;99.90
48666;DHT22;34452;50.796;4.994;2023-08-07T09:07:15;16.90;99.90
48666;DHT22;34452;50.796;4.994;2023-08-07T09:09:43;17.20;99.90
48666;DHT22;34452;50.796;4.994;2023-08-07T09:12:16;17.40;99.90
48666;DHT22;34452;50.796;4.994;2023-08-07T09:14:44;17.40;99.90
48666;DHT22;34452;50.796;4.994;2023-08-07T09:17:12;17.30;99.90
48666;DHT22;34452;50.796;4.994;2023-08-07T09:19:39;17.20;99.90
48666;DHT22;34452;50.796;4.994;2023-08-07T09:22:05;17.20;99.90
48666;DHT22;34452;50.796;4.994;2023-08-07T09:24:32;17.10;99.90
48666;DHT22;34452;50.796;4.994;2023-08-07T09:26:58;17.20;99.90
48666;DHT22;34452;50.796;4.994;2023-08-07T09:29:24;17.30;99.90
48666;DHT22;34452;50.796;4.994;2023-08-07T09:31:50;17.50;99.90
48666;DHT22;34452;50.796;4.994;2023-08-07T09:34:20;17.80;99.90
48666;DHT22;34452;50.796;4.994;2023-08-07T09:36:45;17.80;99.90
48666;DHT22;34452;50.796;4.994;2023-08-07T09:39:11;17.60;99.90
48666;DHT22;34452;50.796;4.994;2023-08-07T09:41:37;17.40;99.90
48666;DHT22;34452;50.796;4.994;2023-08-07T09:44:16;17.30;99.90
48666;DHT22;34452;50.796;4.994;2023-08-07T09:46:43;17.30;99.90
48666;DHT22;34452;50.796;4.994;2023-08-07T09:49:09;17.30;99.90
48666;DHT22;34452;50.796;4.994;2023-08-07T09:51:47;17.10;99.90
48666;DHT22;34452;50.796;4.994;2023-08-07T09:54:13;17.20;99.90
48666;DHT22;34452;50.796;4.994;2023-08-07T09:56:40;17.60;99.90
48666;DHT22;34452;50.796;4.994;2023-08-07T09:59:07;17.70;99.90
48666;DHT22;34452;50.796;4.994;2023-08-07T10:01:35;17.70;99.90
48666;DHT22;34452;50.796;4.994;2023-08-07T10:04:01;17.70;99.90
48666;DHT22;34452;50.796;4.994;2023-08-07T10:06:27;17.70;99.90
48666;DHT22;34452;50.796;4.994;2023-08-07T10:08:54;17.60;99.90
48666;DHT22;34452;50.796;4.994;2023-08-07T10:11:20;17.80;99.90
48666;DHT22;34452;50.796;4.994;2023-08-07T10:13:47;18.10;99.90
48666;DHT22;34452;50.796;4.994;2023-08-07T10:16:14;18.30;99.90
48666;DHT22;34452;50.796;4.994;2023-08-07T10:18:39;18.30;99.90
48666;DHT22;34452;50.796;4.994;2023-08-07T10:21:06;18.30;99.90
48666;DHT22;34452;50.796;4.994;2023-08-07T10:23:35;18.30;99.90
48666;DHT22;34452;50.796;4.994;2023-08-07T10:26:04;18.40;99.90
48666;DHT22;34452;50.796;4.994;2023-08-07T10:28:32;18.40;99.90
48666;DHT22;34452;50.796;4.994;2023-08-07T10:31:04;18.50;99.90
48666;DHT22;34452;50.796;4.994;2023-08-07T10:33:31;18.70;99.90
48666;DHT22;34452;50.796;4.994;2023-08-07T10:35:58;18.90;99.90
48666;DHT22;34452;50.796;4.994;2023-08-07T10:38:25;19.10;99.90
48666;DHT22;34452;50.796;4.994;2023-08-07T10:41:06;19.10;99.90
48666;DHT22;34452;50.796;4.994;2023-08-07T10:43:38;19.10;99.90
48666;DHT22;34452;50.796;4.994;2023-08-07T10:46:06;19.20;99.90
48666;DHT22;34452;50.796;4.994;2023-08-07T10:48:39;19.10;99.90
48666;DHT22;34452;50.796;4.994;2023-08-07T10:51:06;19.10;99.90
48666;DHT22;34452;50.796;4.994;2023-08-07T10:53:37;19.10;99.90
48666;DHT22;34452;50.796;4.994;2023-08-07T10:56:05;19.30;99.90
48666;DHT22;34452;50.796;4.994;2023-08-07T10:58:35;19.40;99.90
48666;DHT22;34452;50.796;4.994;2023-08-07T11:01:22;19.40;99.90
48666;DHT22;34452;50.796;4.994;2023-08-07T11:03:49;19.30;99.90
48666;DHT22;34452;50.796;4.994;2023-08-07T11:06:17;18.90;99.90
48666;DHT22;34452;50.796;4.994;2023-08-07T11:08:43;18.70;99.90
48666;DHT22;34452;50.796;4.994;2023-08-07T11:11:09;18.80;99.90
48666;DHT22;34452;50.796;4.994;2023-08-07T11:13:34;19.00;99.90
48666;DHT22;34452;50.796;4.994;2023-08-07T11:16:02;19.30;99.90
48666;DHT22;34452;50.796;4.994;2023-08-07T11:18:28;19.40;99.90
48666;DHT22;34452;50.796;4.994;2023-08-07T11:20:55;19.50;99.90
48666;DHT22;34452;50.796;4.994;2023-08-07T11:23:24;19.30;99.90
48666;DHT22;34452;50.796;4.994;2023-08-07T11:25:50;19.10;99.90
48666;DHT22;34452;50.796;4.994;2023-08-07T11:28:34;19.30;99.90
48666;DHT22;34452;50.796;4.994;2023-08-07T11:31:00;19.70;99.90
48666;DHT22;34452;50.796;4.994;2023-08-07T11:33:27;19.90;99.90
48666;DHT22;34452;50.796;4.994;2023-08-07T11:35:54;20.00;99.90
48666;DHT22;34452;50.796;4.994;2023-08-07T11:41:06;20.40;99.90
48666;DHT22;34452;50.796;4.994;2023-08-07T11:43:33;20.40;99.50
48666;DHT22;34452;50.796;4.994;2023-08-07T11:46:01;20.20;99.50
48666;DHT22;34452;50.796;4.994;2023-08-07T11:48:29;20.20;99.90
48666;DHT22;34452;50.796;4.994;2023-08-07T11:50:56;20.30;99.70
48666;DHT22;34452;50.796;4.994;2023-08-07T11:53:24;20.20;99.50
48666;DHT22;34452;50.796;4.994;2023-08-07T11:58:46;20.60;99.90
48666;DHT22;34452;50.796;4.994;2023-08-07T12:01:14;20.70;97.50
48666;DHT22;34452;50.796;4.994;2023-08-07T12:03:50;20.80;97.50
48666;DHT22;34452;50.796;4.994;2023-08-07T12:06:16;20.70;96.00
48666;DHT22;34452;50.796;4.994;2023-08-07T12:08:42;20.80;95.00
48666;DHT22;34452;50.796;4.994;2023-08-07T12:11:08;20.80;96.90
48666;DHT22;34452;50.796;4.994;2023-08-07T12:13:38;20.90;96.10
48666;DHT22;34452;50.796;4.994;2023-08-07T12:16:04;20.90;97.20
48666;DHT22;34452;50.796;4.994;2023-08-07T12:18:30;20.70;96.50
48666;DHT22;34452;50.796;4.994;2023-08-07T12:21:00;20.80;95.50
48666;DHT22;34452;50.796;4.994;2023-08-07T12:23:26;20.90;95.50
48666;DHT22;34452;50.796;4.994;2023-08-07T12:25:52;21.10;94.80
48666;DHT22;34452;50.796;4.994;2023-08-07T12:28:19;20.60;94.60
48666;DHT22;34452;50.796;4.994;2023-08-07T12:30:45;20.80;96.20
48666;DHT22;34452;50.796;4.994;2023-08-07T12:33:11;20.80;95.40
48666;DHT22;34452;50.796;4.994;2023-08-07T12:35:37;20.90;95.10
48666;DHT22;34452;50.796;4.994;2023-08-07T12:38:02;20.70;95.20
48666;DHT22;34452;50.796;4.994;2023-08-07T12:40:30;20.60;94.90
48666;DHT22;34452;50.796;4.994;2023-08-07T12:42:57;20.60;96.00
48666;DHT22;34452;50.796;4.994;2023-08-07T12:45:23;20.80;96.80
48666;DHT22;34452;50.796;4.994;2023-08-07T12:47:49;20.80;95.20
48666;DHT22;34452;50.796;4.994;2023-08-07T12:50:15;20.60;95.00
48666;DHT22;34452;50.796;4.994;2023-08-07T12:52:41;20.40;96.00
48666;DHT22;34452;50.796;4.994;2023-08-07T12:55:07;20.20;95.40
48666;DHT22;34452;50.796;4.994;2023-08-07T12:57:33;20.00;95.60
48666;DHT22;34452;50.796;4.994;2023-08-07T12:59:59;19.80;96.50
48666;DHT22;34452;50.796;4.994;2023-08-07T13:02:25;19.90;97.00
48666;DHT22;34452;50.796;4.994;2023-08-07T13:04:50;20.30;97.00
48666;DHT22;34452;50.796;4.994;2023-08-07T13:07:17;20.40;97.70
48666;DHT22;34452;50.796;4.994;2023-08-07T13:09:43;20.40;96.20
48666;DHT22;34452;50.796;4.994;2023-08-07T13:12:09;20.50;96.60
48666;DHT22;34452;50.796;4.994;2023-08-07T13:14:34;20.50;95.90
48666;DHT22;34452;50.796;4.994;2023-08-07T13:17:00;20.60;95.60
48666;DHT22;34452;50.796;4.994;2023-08-07T13:19:26;21.00;97.10
48666;DHT22;34452;50.796;4.994;2023-08-07T13:21:52;21.40;96.70
48666;DHT22;34452;50.796;4.994;2023-08-07T13:24:17;21.50;95.60
48666;DHT22;34452;50.796;4.994;2023-08-07T13:26:43;21.50;94.60
48666;DHT22;34452;50.796;4.994;2023-08-07T13:29:11;21.20;95.20
48666;DHT22;34452;50.796;4.994;2023-08-07T13:31:37;20.90;95.80
48666;DHT22;34452;50.796;4.994;2023-08-07T13:34:03;20.60;96.10
48666;DHT22;34452;50.796;4.994;2023-08-07T13:36:35;20.30;95.90
48666;DHT22;34452;50.796;4.994;2023-08-07T13:39:01;20.20;97.20
48666;DHT22;34452;50.796;4.994;2023-08-07T13:41:27;20.30;97.90
48666;DHT22;34452;50.796;4.994;2023-08-07T13:43:53;20.20;97.50
48666;DHT22;34452;50.796;4.994;2023-08-07T13:46:19;20.10;98.70
48666;DHT22;34452;50.796;4.994;2023-08-07T13:48:45;20.10;98.60
48666;DHT22;34452;50.796;4.994;2023-08-07T13:51:11;20.50;99.30
48666;DHT22;34452;50.796;4.994;2023-08-07T13:53:37;21.10;99.30
48666;DHT22;34452;50.796;4.994;2023-08-07T13:56:03;21.50;97.10
48666;DHT22;34452;50.796;4.994;2023-08-07T13:58:29;21.70;97.50
48666;DHT22;34452;50.796;4.994;2023-08-07T14:00:56;21.40;95.30
48666;DHT22;34452;50.796;4.994;2023-08-07T14:03:22;21.00;95.40
48666;DHT22;34452;50.796;4.994;2023-08-07T14:05:48;20.80;97.10
48666;DHT22;34452;50.796;4.994;2023-08-07T14:08:15;20.60;98.30
48666;DHT22;34452;50.796;4.994;2023-08-07T14:10:41;20.40;96.80
48666;DHT22;34452;50.796;4.994;2023-08-07T14:13:07;20.20;97.00
48666;DHT22;34452;50.796;4.994;2023-08-07T14:15:35;20.10;97.70
48666;DHT22;34452;50.796;4.994;2023-08-07T14:18:00;20.10;98.70
48666;DHT22;34452;50.796;4.994;2023-08-07T14:20:26;20.20;99.50
48666;DHT22;34452;50.796;4.994;2023-08-07T14:22:52;20.20;99.70
48666;DHT22;34452;50.796;4.994;2023-08-07T14:25:18;20.60;99.90
48666;DHT22;34452;50.796;4.994;2023-08-07T14:27:44;21.10;97.80
48666;DHT22;34452;50.796;4.994;2023-08-07T14:30:10;21.60;98.70
48666;DHT22;34452;50.796;4.994;2023-08-07T14:32:36;21.90;96.90
48666;DHT22;34452;50.796;4.994;2023-08-07T14:35:01;21.60;95.90
48666;DHT22;34452;50.796;4.994;2023-08-07T14:37:27;21.30;96.30
48666;DHT22;34452;50.796;4.994;2023-08-07T14:39:53;21.30;96.50
48666;DHT22;34452;50.796;4.994;2023-08-07T14:42:19;21.60;95.30
48666;DHT22;34452;50.796;4.994;2023-08-07T14:44:45;21.90;95.40
48666;DHT22;34452;50.796;4.994;2023-08-07T14:47:10;22.30;94.40
48666;DHT22;34452;50.796;4.994;2023-08-07T14:49:36;22.50;94.50
48666;DHT22;34452;50.796;4.994;2023-08-07T14:52:02;22.60;93.50
48666;DHT22;34452;50.796;4.994;2023-08-07T14:54:28;22.70;91.90
48666;DHT22;34452;50.796;4.994;2023-08-07T14:56:54;22.30;91.00
48666;DHT22;34452;50.796;4.994;2023-08-07T14:59:19;21.80;92.40
48666;DHT22;34452;50.796;4.994;2023-08-07T15:01:45;21.50;92.80
48666;DHT22;34452;50.796;4.994;2023-08-07T15:04:11;21.30;93.40
48666;DHT22;34452;50.796;4.994;2023-08-07T15:06:37;21.10;92.80
48666;DHT22;34452;50.796;4.994;2023-08-07T15:09:03;21.10;94.10
48666;DHT22;34452;50.796;4.994;2023-08-07T15:11:28;21.00;93.20
48666;DHT22;34452;50.796;4.994;2023-08-07T15:13:54;20.90;94.20
48666;DHT22;34452;50.796;4.994;2023-08-07T15:16:20;20.80;95.10
48666;DHT22;34452;50.796;4.994;2023-08-07T15:18:45;20.60;94.10
48666;DHT22;34452;50.796;4.994;2023-08-07T15:21:11;20.50;93.50
48666;DHT22;34452;50.796;4.994;2023-08-07T15:23:37;20.50;95.00
48666;DHT22;34452;50.796;4.994;2023-08-07T15:26:03;20.50;94.80
48666;DHT22;34452;50.796;4.994;2023-08-07T15:28:28;20.50;95.40
48666;DHT22;34452;50.796;4.994;2023-08-07T15:30:54;20.70;94.00
48666;DHT22;34452;50.796;4.994;2023-08-07T15:33:20;20.70;94.70
48666;DHT22;34452;50.796;4.994;2023-08-07T15:35:46;20.50;94.80
48666;DHT22;34452;50.796;4.994;2023-08-07T15:38:11;20.50;94.40
48666;DHT22;34452;50.796;4.994;2023-08-07T15:40:39;20.60;94.40